Troy, Idaho
Current Conditions -  °F | °C
As of 1:53 AM on Sunday 21 Dec 2014 (Local Time) from KPUW Reporting Station
Overcast Overcast  
Wind Chill: 51°   Ceiling: 2000
Heat Index: 51°   Visibility: 10mi
Dew Point: 46°   Wind: 20mph
Humidity: 83%   Direction: 250°WSW
Pressure: 29.53"   Gusts: 37mph
Location:  46.74°N, 116.77°W
Report Text: KPUW 210953Z AUTO 25017G32KT 10SM OVC020 11/08 A2953 RMK AO2 PK WND 25033/0942 RAE00 SLP006 P0000 T01060078
Loading
Personal Weather Stations






























Interactive Weather Map New forecast layout! Learn more

10-Day Weather Forecast

Advertisements
Track Severe Weather on mobile